sensor_id;sensor_type;location;lat;lon;timestamp;P1;durP1;ratioP1;P2;durP2;ratioP2
14849;SDS011;7517;48.400;11.770;2023-02-14T00:02:22;22.93;;;11.23;;
14849;SDS011;7517;48.400;11.770;2023-02-14T00:04:49;17.97;;;11.17;;
14849;SDS011;7517;48.400;11.770;2023-02-14T00:07:18;26.67;;;11.10;;
14849;SDS011;7517;48.400;11.770;2023-02-14T00:09:45;18.00;;;10.53;;
14849;SDS011;7517;48.400;11.770;2023-02-14T00:12:12;16.40;;;9.87;;
14849;SDS011;7517;48.400;11.770;2023-02-14T00:14:39;20.17;;;11.40;;
14849;SDS011;7517;48.400;11.770;2023-02-14T00:17:24;18.53;;;9.73;;
14849;SDS011;7517;48.400;11.770;2023-02-14T00:19:51;21.07;;;10.63;;
14849;SDS011;7517;48.400;11.770;2023-02-14T00:22:20;20.07;;;10.97;;
14849;SDS011;7517;48.400;11.770;2023-02-14T00:24:47;23.70;;;9.87;;
14849;SDS011;7517;48.400;11.770;2023-02-14T00:27:14;19.17;;;9.87;;
14849;SDS011;7517;48.400;11.770;2023-02-14T00:29:41;20.93;;;10.07;;
14849;SDS011;7517;48.400;11.770;2023-02-14T00:32:08;19.00;;;10.07;;
14849;SDS011;7517;48.400;11.770;2023-02-14T00:34:36;24.47;;;11.33;;
14849;SDS011;7517;48.400;11.770;2023-02-14T00:37:03;25.53;;;9.90;;
14849;SDS011;7517;48.400;11.770;2023-02-14T00:39:31;20.07;;;10.23;;
14849;SDS011;7517;48.400;11.770;2023-02-14T00:41:58;24.37;;;10.17;;
14849;SDS011;7517;48.400;11.770;2023-02-14T00:44:26;17.30;;;9.20;;
14849;SDS011;7517;48.400;11.770;2023-02-14T00:46:53;16.57;;;9.43;;
14849;SDS011;7517;48.400;11.770;2023-02-14T00:49:20;20.80;;;10.30;;
14849;SDS011;7517;48.400;11.770;2023-02-14T00:51:47;16.27;;;9.87;;
14849;SDS011;7517;48.400;11.770;2023-02-14T00:54:14;17.43;;;10.80;;
14849;SDS011;7517;48.400;11.770;2023-02-14T00:56:43;25.00;;;10.67;;
14849;SDS011;7517;48.400;11.770;2023-02-14T00:59:10;24.97;;;9.80;;
14849;SDS011;7517;48.400;11.770;2023-02-14T01:01:38;17.63;;;9.80;;
14849;SDS011;7517;48.400;11.770;2023-02-14T01:04:05;22.23;;;9.80;;
14849;SDS011;7517;48.400;11.770;2023-02-14T01:06:33;23.37;;;9.27;;
14849;SDS011;7517;48.400;11.770;2023-02-14T01:09:00;16.80;;;9.60;;
14849;SDS011;7517;48.400;11.770;2023-02-14T01:11:28;24.93;;;10.07;;
14849;SDS011;7517;48.400;11.770;2023-02-14T01:13:57;17.97;;;10.27;;
14849;SDS011;7517;48.400;11.770;2023-02-14T01:16:27;21.93;;;9.87;;
14849;SDS011;7517;48.400;11.770;2023-02-14T01:45:00;22.13;;;10.27;;
14849;SDS011;7517;48.400;11.770;2023-02-14T01:47:35;21.20;;;9.37;;
14849;SDS011;7517;48.400;11.770;2023-02-14T01:50:09;27.43;;;10.23;;
14849;SDS011;7517;48.400;11.770;2023-02-14T01:52:44;35.07;;;10.30;;
14849;SDS011;7517;48.400;11.770;2023-02-14T01:55:18;17.67;;;9.37;;
14849;SDS011;7517;48.400;11.770;2023-02-14T01:58:03;13.23;;;8.10;;
14849;SDS011;7517;48.400;11.770;2023-02-14T02:00:40;31.20;;;9.63;;
14849;SDS011;7517;48.400;11.770;2023-02-14T02:03:25;15.43;;;8.60;;
14849;SDS011;7517;48.400;11.770;2023-02-14T02:06:02;21.43;;;8.97;;
14849;SDS011;7517;48.400;11.770;2023-02-14T02:08:36;18.30;;;8.67;;
14849;SDS011;7517;48.400;11.770;2023-02-14T02:11:14;17.63;;;8.87;;
14849;SDS011;7517;48.400;11.770;2023-02-14T02:13:41;14.27;;;9.33;;
14849;SDS011;7517;48.400;11.770;2023-02-14T02:16:14;26.27;;;9.17;;
14849;SDS011;7517;48.400;11.770;2023-02-14T02:19:08;17.70;;;8.93;;
14849;SDS011;7517;48.400;11.770;2023-02-14T02:32:42;24.93;;;8.77;;
14849;SDS011;7517;48.400;11.770;2023-02-14T02:35:56;12.30;;;8.40;;
14849;SDS011;7517;48.400;11.770;2023-02-14T02:39:02;18.70;;;8.57;;
14849;SDS011;7517;48.400;11.770;2023-02-14T02:41:46;15.37;;;8.00;;
14849;SDS011;7517;48.400;11.770;2023-02-14T02:44:26;17.63;;;8.77;;
14849;SDS011;7517;48.400;11.770;2023-02-14T02:47:08;20.10;;;8.00;;
14849;SDS011;7517;48.400;11.770;2023-02-14T02:49:50;17.67;;;8.20;;
14849;SDS011;7517;48.400;11.770;2023-02-14T02:52:48;14.20;;;8.23;;
14849;SDS011;7517;48.400;11.770;2023-02-14T02:55:35;19.60;;;8.10;;
14849;SDS011;7517;48.400;11.770;2023-02-14T02:58:28;14.30;;;8.10;;
14849;SDS011;7517;48.400;11.770;2023-02-14T03:01:01;11.70;;;7.80;;
14849;SDS011;7517;48.400;11.770;2023-02-14T03:03:45;17.33;;;8.00;;
14849;SDS011;7517;48.400;11.770;2023-02-14T03:06:35;25.37;;;8.73;;
14849;SDS011;7517;48.400;11.770;2023-02-14T03:09:11;12.67;;;7.83;;
14849;SDS011;7517;48.400;11.770;2023-02-14T03:12:02;13.13;;;7.97;;
14849;SDS011;7517;48.400;11.770;2023-02-14T03:14:49;21.07;;;8.43;;
14849;SDS011;7517;48.400;11.770;2023-02-14T03:17:28;19.17;;;8.67;;
14849;SDS011;7517;48.400;11.770;2023-02-14T03:20:09;18.97;;;8.03;;
14849;SDS011;7517;48.400;11.770;2023-02-14T03:22:55;16.93;;;8.13;;
14849;SDS011;7517;48.400;11.770;2023-02-14T03:26:04;22.30;;;7.93;;
14849;SDS011;7517;48.400;11.770;2023-02-14T03:28:42;11.33;;;7.37;;
14849;SDS011;7517;48.400;11.770;2023-02-14T03:31:19;18.87;;;8.40;;
14849;SDS011;7517;48.400;11.770;2023-02-14T03:33:55;13.73;;;7.27;;
14849;SDS011;7517;48.400;11.770;2023-02-14T03:36:28;25.90;;;8.17;;
14849;SDS011;7517;48.400;11.770;2023-02-14T03:39:04;13.50;;;7.40;;
14849;SDS011;7517;48.400;11.770;2023-02-14T03:41:43;17.67;;;8.53;;
14849;SDS011;7517;48.400;11.770;2023-02-14T03:44:17;15.60;;;7.87;;
14849;SDS011;7517;48.400;11.770;2023-02-14T03:46:53;18.07;;;8.00;;
14849;SDS011;7517;48.400;11.770;2023-02-14T03:49:25;31.10;;;7.70;;
14849;SDS011;7517;48.400;11.770;2023-02-14T03:51:57;20.10;;;7.67;;
14849;SDS011;7517;48.400;11.770;2023-02-14T03:54:29;23.33;;;7.27;;
14849;SDS011;7517;48.400;11.770;2023-02-14T03:57:02;18.07;;;7.97;;
14849;SDS011;7517;48.400;11.770;2023-02-14T03:59:38;17.00;;;7.33;;
14849;SDS011;7517;48.400;11.770;2023-02-14T04:02:08;22.73;;;8.00;;
14849;SDS011;7517;48.400;11.770;2023-02-14T04:04:41;10.73;;;7.03;;
14849;SDS011;7517;48.400;11.770;2023-02-14T04:07:16;13.73;;;7.43;;
14849;SDS011;7517;48.400;11.770;2023-02-14T04:09:49;17.43;;;8.03;;
14849;SDS011;7517;48.400;11.770;2023-02-14T04:12:18;16.53;;;7.13;;
14849;SDS011;7517;48.400;11.770;2023-02-14T04:14:46;15.97;;;7.77;;
14849;SDS011;7517;48.400;11.770;2023-02-14T04:17:13;24.47;;;7.97;;
14849;SDS011;7517;48.400;11.770;2023-02-14T04:20:01;27.47;;;8.23;;
14849;SDS011;7517;48.400;11.770;2023-02-14T04:22:28;29.30;;;8.10;;
14849;SDS011;7517;48.400;11.770;2023-02-14T04:24:55;8.63;;;7.27;;
14849;SDS011;7517;48.400;11.770;2023-02-14T04:27:24;13.20;;;7.63;;
14849;SDS011;7517;48.400;11.770;2023-02-14T04:29:51;17.53;;;7.17;;
14849;SDS011;7517;48.400;11.770;2023-02-14T04:32:21;14.13;;;6.63;;
14849;SDS011;7517;48.400;11.770;2023-02-14T04:34:49;18.97;;;7.30;;
14849;SDS011;7517;48.400;11.770;2023-02-14T04:37:17;18.97;;;7.13;;
14849;SDS011;7517;48.400;11.770;2023-02-14T04:39:45;11.17;;;7.17;;
14849;SDS011;7517;48.400;11.770;2023-02-14T04:42:12;16.00;;;7.83;;
14849;SDS011;7517;48.400;11.770;2023-02-14T04:44:41;16.60;;;7.50;;
14849;SDS011;7517;48.400;11.770;2023-02-14T04:47:08;12.07;;;7.20;;
14849;SDS011;7517;48.400;11.770;2023-02-14T04:49:36;15.20;;;8.00;;
14849;SDS011;7517;48.400;11.770;2023-02-14T04:52:03;18.43;;;7.30;;
14849;SDS011;7517;48.400;11.770;2023-02-14T04:54:32;22.13;;;8.00;;
14849;SDS011;7517;48.400;11.770;2023-02-14T04:56:59;9.80;;;7.40;;
14849;SDS011;7517;48.400;11.770;2023-02-14T04:59:27;10.53;;;6.63;;
14849;SDS011;7517;48.400;11.770;2023-02-14T05:01:55;7.97;;;6.27;;
14849;SDS011;7517;48.400;11.770;2023-02-14T05:04:23;15.60;;;7.13;;
14849;SDS011;7517;48.400;11.770;2023-02-14T05:06:50;21.63;;;7.20;;
14849;SDS011;7517;48.400;11.770;2023-02-14T05:09:17;13.80;;;6.80;;
14849;SDS011;7517;48.400;11.770;2023-02-14T05:11:45;7.77;;;6.10;;
14849;SDS011;7517;48.400;11.770;2023-02-14T05:14:12;16.53;;;7.10;;
14849;SDS011;7517;48.400;11.770;2023-02-14T05:16:39;15.07;;;7.07;;
14849;SDS011;7517;48.400;11.770;2023-02-14T05:19:08;19.50;;;7.47;;
14849;SDS011;7517;48.400;11.770;2023-02-14T05:21:35;14.07;;;7.30;;
14849;SDS011;7517;48.400;11.770;2023-02-14T05:24:02;12.67;;;7.30;;
14849;SDS011;7517;48.400;11.770;2023-02-14T05:26:30;15.57;;;7.10;;
14849;SDS011;7517;48.400;11.770;2023-02-14T05:28:58;11.80;;;6.80;;
14849;SDS011;7517;48.400;11.770;2023-02-14T05:31:25;10.97;;;6.87;;
14849;SDS011;7517;48.400;11.770;2023-02-14T05:33:53;13.67;;;7.17;;
14849;SDS011;7517;48.400;11.770;2023-02-14T05:36:21;17.47;;;7.57;;
14849;SDS011;7517;48.400;11.770;2023-02-14T05:38:49;8.43;;;6.70;;
14849;SDS011;7517;48.400;11.770;2023-02-14T05:41:16;14.70;;;7.37;;
14849;SDS011;7517;48.400;11.770;2023-02-14T05:43:43;22.00;;;8.90;;
14849;SDS011;7517;48.400;11.770;2023-02-14T05:46:11;24.13;;;7.87;;
14849;SDS011;7517;48.400;11.770;2023-02-14T05:48:38;30.10;;;7.77;;
14849;SDS011;7517;48.400;11.770;2023-02-14T05:51:06;22.87;;;7.17;;
14849;SDS011;7517;48.400;11.770;2023-02-14T05:53:37;24.07;;;7.60;;
14849;SDS011;7517;48.400;11.770;2023-02-14T05:56:04;9.20;;;6.77;;
14849;SDS011;7517;48.400;11.770;2023-02-14T05:58:32;22.87;;;7.00;;
14849;SDS011;7517;48.400;11.770;2023-02-14T06:00:59;14.83;;;6.80;;
14849;SDS011;7517;48.400;11.770;2023-02-14T06:03:27;11.47;;;6.77;;
14849;SDS011;7517;48.400;11.770;2023-02-14T06:05:54;19.80;;;7.43;;
14849;SDS011;7517;48.400;11.770;2023-02-14T06:08:21;13.40;;;7.13;;
14849;SDS011;7517;48.400;11.770;2023-02-14T06:10:50;10.13;;;6.30;;
14849;SDS011;7517;48.400;11.770;2023-02-14T06:13:17;19.53;;;7.00;;
14849;SDS011;7517;48.400;11.770;2023-02-14T06:15:45;26.00;;;7.27;;
14849;SDS011;7517;48.400;11.770;2023-02-14T06:18:12;8.77;;;6.03;;
14849;SDS011;7517;48.400;11.770;2023-02-14T06:20:39;12.87;;;6.30;;
14849;SDS011;7517;48.400;11.770;2023-02-14T06:23:07;8.83;;;6.40;;
14849;SDS011;7517;48.400;11.770;2023-02-14T06:25:34;11.30;;;6.83;;
14849;SDS011;7517;48.400;11.770;2023-02-14T06:28:03;15.60;;;7.23;;
14849;SDS011;7517;48.400;11.770;2023-02-14T06:30:30;14.03;;;6.50;;
14849;SDS011;7517;48.400;11.770;2023-02-14T06:32:58;19.37;;;7.23;;
14849;SDS011;7517;48.400;11.770;2023-02-14T06:35:25;15.33;;;6.73;;
14849;SDS011;7517;48.400;11.770;2023-02-14T06:37:52;13.50;;;6.00;;
14849;SDS011;7517;48.400;11.770;2023-02-14T06:40:19;16.03;;;7.17;;
14849;SDS011;7517;48.400;11.770;2023-02-14T06:42:48;11.37;;;6.97;;
14849;SDS011;7517;48.400;11.770;2023-02-14T06:45:16;12.93;;;6.30;;
14849;SDS011;7517;48.400;11.770;2023-02-14T06:47:44;9.50;;;6.50;;
14849;SDS011;7517;48.400;11.770;2023-02-14T06:50:15;9.70;;;6.33;;
14849;SDS011;7517;48.400;11.770;2023-02-14T06:52:50;9.87;;;6.43;;
14849;SDS011;7517;48.400;11.770;2023-02-14T06:56:03;10.73;;;6.33;;
14849;SDS011;7517;48.400;11.770;2023-02-14T06:58:39;10.77;;;6.30;;
14849;SDS011;7517;48.400;11.770;2023-02-14T07:01:24;7.50;;;5.90;;
14849;SDS011;7517;48.400;11.770;2023-02-14T07:04:08;7.13;;;5.80;;
14849;SDS011;7517;48.400;11.770;2023-02-14T07:06:48;11.40;;;5.97;;
14849;SDS011;7517;48.400;11.770;2023-02-14T07:09:16;11.93;;;6.00;;
14849;SDS011;7517;48.400;11.770;2023-02-14T07:11:43;11.23;;;5.87;;
14849;SDS011;7517;48.400;11.770;2023-02-14T07:14:11;12.00;;;6.47;;
14849;SDS011;7517;48.400;11.770;2023-02-14T07:19:23;13.23;;;6.27;;
14849;SDS011;7517;48.400;11.770;2023-02-14T07:21:51;9.53;;;5.83;;
14849;SDS011;7517;48.400;11.770;2023-02-14T07:24:21;8.87;;;6.10;;
14849;SDS011;7517;48.400;11.770;2023-02-14T07:26:48;9.73;;;6.57;;
14849;SDS011;7517;48.400;11.770;2023-02-14T07:29:16;12.43;;;6.23;;
14849;SDS011;7517;48.400;11.770;2023-02-14T07:31:45;17.00;;;6.70;;
14849;SDS011;7517;48.400;11.770;2023-02-14T07:34:12;8.87;;;6.00;;
14849;SDS011;7517;48.400;11.770;2023-02-14T07:36:43;7.87;;;5.50;;
14849;SDS011;7517;48.400;11.770;2023-02-14T07:39:10;12.47;;;5.77;;
14849;SDS011;7517;48.400;11.770;2023-02-14T07:41:39;9.60;;;6.37;;
14849;SDS011;7517;48.400;11.770;2023-02-14T07:44:09;11.70;;;6.87;;
14849;SDS011;7517;48.400;11.770;2023-02-14T07:46:36;8.93;;;6.53;;
14849;SDS011;7517;48.400;11.770;2023-02-14T07:49:06;10.67;;;6.63;;
14849;SDS011;7517;48.400;11.770;2023-02-14T07:51:36;8.50;;;6.03;;
14849;SDS011;7517;48.400;11.770;2023-02-14T07:54:07;8.33;;;5.90;;
14849;SDS011;7517;48.400;11.770;2023-02-14T07:56:36;7.73;;;6.03;;
14849;SDS011;7517;48.400;11.770;2023-02-14T07:59:05;8.20;;;5.93;;
14849;SDS011;7517;48.400;11.770;2023-02-14T08:01:35;7.77;;;5.63;;
14849;SDS011;7517;48.400;11.770;2023-02-14T08:04:07;9.33;;;5.77;;
14849;SDS011;7517;48.400;11.770;2023-02-14T08:06:37;18.40;;;6.73;;
14849;SDS011;7517;48.400;11.770;2023-02-14T08:09:10;13.00;;;6.13;;
14849;SDS011;7517;48.400;11.770;2023-02-14T08:11:48;11.73;;;6.40;;
14849;SDS011;7517;48.400;11.770;2023-02-14T08:14:38;24.43;;;6.30;;
14849;SDS011;7517;48.400;11.770;2023-02-14T08:17:06;10.77;;;6.00;;
14849;SDS011;7517;48.400;11.770;2023-02-14T08:19:34;7.20;;;5.90;;
14849;SDS011;7517;48.400;11.770;2023-02-14T08:22:02;8.47;;;6.03;;
14849;SDS011;7517;48.400;11.770;2023-02-14T08:24:38;10.80;;;6.60;;
14849;SDS011;7517;48.400;11.770;2023-02-14T08:27:18;11.63;;;6.17;;
14849;SDS011;7517;48.400;11.770;2023-02-14T08:29:52;9.03;;;6.23;;
14849;SDS011;7517;48.400;11.770;2023-02-14T08:32:19;10.33;;;6.00;;
14849;SDS011;7517;48.400;11.770;2023-02-14T08:34:46;9.40;;;6.57;;
14849;SDS011;7517;48.400;11.770;2023-02-14T08:37:13;9.30;;;6.20;;
14849;SDS011;7517;48.400;11.770;2023-02-14T08:39:44;9.27;;;6.33;;
14849;SDS011;7517;48.400;11.770;2023-02-14T08:42:12;8.80;;;5.93;;
14849;SDS011;7517;48.400;11.770;2023-02-14T08:44:44;7.83;;;5.70;;
14849;SDS011;7517;48.400;11.770;2023-02-14T08:47:11;7.37;;;6.00;;
14849;SDS011;7517;48.400;11.770;2023-02-14T08:49:41;8.30;;;5.90;;
14849;SDS011;7517;48.400;11.770;2023-02-14T08:52:08;22.83;;;6.80;;
14849;SDS011;7517;48.400;11.770;2023-02-14T08:54:35;12.33;;;6.27;;
14849;SDS011;7517;48.400;11.770;2023-02-14T08:57:10;9.13;;;6.60;;
14849;SDS011;7517;48.400;11.770;2023-02-14T08:59:39;11.37;;;6.37;;
14849;SDS011;7517;48.400;11.770;2023-02-14T09:02:10;9.77;;;6.17;;
14849;SDS011;7517;48.400;11.770;2023-02-14T09:04:38;8.13;;;6.17;;
14849;SDS011;7517;48.400;11.770;2023-02-14T09:07:10;9.80;;;7.13;;
14849;SDS011;7517;48.400;11.770;2023-02-14T09:09:40;11.27;;;6.63;;
14849;SDS011;7517;48.400;11.770;2023-02-14T09:12:14;10.37;;;7.20;;
14849;SDS011;7517;48.400;11.770;2023-02-14T09:14:42;13.50;;;8.13;;
14849;SDS011;7517;48.400;11.770;2023-02-14T09:17:10;8.30;;;6.90;;
14849;SDS011;7517;48.400;11.770;2023-02-14T09:19:38;10.70;;;7.27;;
14849;SDS011;7517;48.400;11.770;2023-02-14T09:22:06;10.80;;;7.57;;
14849;SDS011;7517;48.400;11.770;2023-02-14T09:24:36;10.67;;;8.00;;
14849;SDS011;7517;48.400;11.770;2023-02-14T09:27:05;14.30;;;9.53;;
14849;SDS011;7517;48.400;11.770;2023-02-14T09:29:39;14.23;;;9.63;;
14849;SDS011;7517;48.400;11.770;2023-02-14T09:32:07;12.50;;;9.00;;
14849;SDS011;7517;48.400;11.770;2023-02-14T09:34:34;13.07;;;8.47;;
14849;SDS011;7517;48.400;11.770;2023-02-14T09:37:18;13.83;;;9.30;;
14849;SDS011;7517;48.400;11.770;2023-02-14T09:40:03;13.37;;;8.30;;
14849;SDS011;7517;48.400;11.770;2023-02-14T09:42:47;11.83;;;8.10;;
14849;SDS011;7517;48.400;11.770;2023-02-14T09:45:36;12.17;;;8.60;;
14849;SDS011;7517;48.400;11.770;2023-02-14T09:48:05;11.00;;;7.97;;
14849;SDS011;7517;48.400;11.770;2023-02-14T09:50:41;13.80;;;9.33;;
14849;SDS011;7517;48.400;11.770;2023-02-14T09:53:16;14.37;;;9.53;;
14849;SDS011;7517;48.400;11.770;2023-02-14T09:55:54;16.03;;;10.97;;
14849;SDS011;7517;48.400;11.770;2023-02-14T09:58:37;14.67;;;9.97;;
14849;SDS011;7517;48.400;11.770;2023-02-14T10:01:14;11.83;;;8.40;;
14849;SDS011;7517;48.400;11.770;2023-02-14T10:03:52;15.23;;;8.93;;
14849;SDS011;7517;48.400;11.770;2023-02-14T10:06:49;11.30;;;8.47;;
14849;SDS011;7517;48.400;11.770;2023-02-14T10:09:31;14.50;;;8.63;;
14849;SDS011;7517;48.400;11.770;2023-02-14T10:12:15;11.50;;;8.30;;
14849;SDS011;7517;48.400;11.770;2023-02-14T10:14:49;13.40;;;9.10;;
14849;SDS011;7517;48.400;11.770;2023-02-14T10:17:21;12.43;;;8.97;;
14849;SDS011;7517;48.400;11.770;2023-02-14T10:20:05;15.83;;;8.97;;
14849;SDS011;7517;48.400;11.770;2023-02-14T10:22:49;11.10;;;8.57;;
14849;SDS011;7517;48.400;11.770;2023-02-14T10:25:30;17.57;;;9.97;;
14849;SDS011;7517;48.400;11.770;2023-02-14T10:28:08;15.07;;;10.53;;
14849;SDS011;7517;48.400;11.770;2023-02-14T10:30:40;15.57;;;10.00;;
14849;SDS011;7517;48.400;11.770;2023-02-14T10:33:27;17.23;;;10.67;;
14849;SDS011;7517;48.400;11.770;2023-02-14T10:36:04;15.60;;;10.33;;
14849;SDS011;7517;48.400;11.770;2023-02-14T10:38:43;14.10;;;10.13;;
14849;SDS011;7517;48.400;11.770;2023-02-14T10:41:24;14.60;;;10.17;;
14849;SDS011;7517;48.400;11.770;2023-02-14T10:44:09;17.00;;;11.13;;
14849;SDS011;7517;48.400;11.770;2023-02-14T10:46:52;15.77;;;10.50;;
14849;SDS011;7517;48.400;11.770;2023-02-14T10:49:33;14.33;;;9.80;;
14849;SDS011;7517;48.400;11.770;2023-02-14T10:52:11;13.80;;;10.13;;
14849;SDS011;7517;48.400;11.770;2023-02-14T10:54:51;16.20;;;10.67;;
14849;SDS011;7517;48.400;11.770;2023-02-14T10:57:23;22.97;;;15.33;;
14849;SDS011;7517;48.400;11.770;2023-02-14T10:59:57;26.60;;;18.17;;
14849;SDS011;7517;48.400;11.770;2023-02-14T11:02:30;21.13;;;12.20;;
14849;SDS011;7517;48.400;11.770;2023-02-14T11:05:05;14.07;;;10.03;;
14849;SDS011;7517;48.400;11.770;2023-02-14T11:07:50;16.37;;;10.87;;
14849;SDS011;7517;48.400;11.770;2023-02-14T11:10:18;16.50;;;10.80;;
14849;SDS011;7517;48.400;11.770;2023-02-14T11:12:51;17.83;;;12.60;;
14849;SDS011;7517;48.400;11.770;2023-02-14T11:15:20;16.73;;;10.77;;
14849;SDS011;7517;48.400;11.770;2023-02-14T11:18:07;14.63;;;11.23;;
14849;SDS011;7517;48.400;11.770;2023-02-14T11:20:52;12.43;;;9.33;;
14849;SDS011;7517;48.400;11.770;2023-02-14T11:23:33;14.37;;;9.43;;
14849;SDS011;7517;48.400;11.770;2023-02-14T11:26:04;11.87;;;9.00;;
14849;SDS011;7517;48.400;11.770;2023-02-14T11:28:46;15.00;;;9.97;;
14849;SDS011;7517;48.400;11.770;2023-02-14T11:31:23;12.80;;;9.43;;
14849;SDS011;7517;48.400;11.770;2023-02-14T11:33:54;12.30;;;9.50;;
14849;SDS011;7517;48.400;11.770;2023-02-14T11:36:26;15.73;;;10.33;;
14849;SDS011;7517;48.400;11.770;2023-02-14T11:39:05;13.53;;;9.67;;
14849;SDS011;7517;48.400;11.770;2023-02-14T11:41:47;11.80;;;8.80;;
14849;SDS011;7517;48.400;11.770;2023-02-14T11:44:18;10.80;;;8.30;;
14849;SDS011;7517;48.400;11.770;2023-02-14T11:46:49;12.70;;;9.60;;
14849;SDS011;7517;48.400;11.770;2023-02-14T11:49:22;12.83;;;9.00;;
14849;SDS011;7517;48.400;11.770;2023-02-14T11:51:55;11.37;;;8.70;;
14849;SDS011;7517;48.400;11.770;2023-02-14T11:54:29;12.40;;;8.30;;
14849;SDS011;7517;48.400;11.770;2023-02-14T11:57:01;11.87;;;8.60;;
14849;SDS011;7517;48.400;11.770;2023-02-14T11:59:35;11.93;;;8.70;;
14849;SDS011;7517;48.400;11.770;2023-02-14T12:02:17;10.50;;;7.90;;
14849;SDS011;7517;48.400;11.770;2023-02-14T12:04:56;10.13;;;7.77;;
14849;SDS011;7517;48.400;11.770;2023-02-14T12:07:31;11.23;;;8.20;;
14849;SDS011;7517;48.400;11.770;2023-02-14T12:10:15;9.93;;;8.27;;
14849;SDS011;7517;48.400;11.770;2023-02-14T12:12:47;11.00;;;8.27;;
14849;SDS011;7517;48.400;11.770;2023-02-14T12:15:22;9.70;;;7.90;;
14849;SDS011;7517;48.400;11.770;2023-02-14T12:21:03;11.13;;;7.93;;
14849;SDS011;7517;48.400;11.770;2023-02-14T12:24:01;12.20;;;8.27;;
14849;SDS011;7517;48.400;11.770;2023-02-14T12:26:41;10.97;;;8.17;;
14849;SDS011;7517;48.400;11.770;2023-02-14T12:29:15;11.97;;;8.70;;
14849;SDS011;7517;48.400;11.770;2023-02-14T12:31:50;10.53;;;8.50;;
14849;SDS011;7517;48.400;11.770;2023-02-14T12:34:19;13.40;;;9.97;;
14849;SDS011;7517;48.400;11.770;2023-02-14T12:36:53;13.00;;;9.77;;
14849;SDS011;7517;48.400;11.770;2023-02-14T12:39:45;15.90;;;10.17;;
14849;SDS011;7517;48.400;11.770;2023-02-14T12:42:38;20.37;;;13.50;;
14849;SDS011;7517;48.400;11.770;2023-02-14T12:45:22;25.93;;;15.67;;
14849;SDS011;7517;48.400;11.770;2023-02-14T12:48:10;23.17;;;14.93;;
14849;SDS011;7517;48.400;11.770;2023-02-14T12:50:51;23.10;;;15.57;;
14849;SDS011;7517;48.400;11.770;2023-02-14T12:53:30;24.13;;;15.83;;
14849;SDS011;7517;48.400;11.770;2023-02-14T12:56:14;25.00;;;15.67;;
14849;SDS011;7517;48.400;11.770;2023-02-14T12:58:58;21.83;;;15.03;;
14849;SDS011;7517;48.400;11.770;2023-02-14T13:01:46;25.13;;;15.33;;
14849;SDS011;7517;48.400;11.770;2023-02-14T13:04:57;23.93;;;14.70;;
14849;SDS011;7517;48.400;11.770;2023-02-14T13:07:33;22.20;;;14.30;;
14849;SDS011;7517;48.400;11.770;2023-02-14T13:10:17;23.43;;;14.53;;
14849;SDS011;7517;48.400;11.770;2023-02-14T13:13:04;19.67;;;13.53;;
14849;SDS011;7517;48.400;11.770;2023-02-14T13:15:41;27.70;;;13.93;;
14849;SDS011;7517;48.400;11.770;2023-02-14T13:18:19;20.47;;;13.97;;
14849;SDS011;7517;48.400;11.770;2023-02-14T13:21:07;20.87;;;13.30;;
14849;SDS011;7517;48.400;11.770;2023-02-14T13:23:39;21.13;;;13.33;;
14849;SDS011;7517;48.400;11.770;2023-02-14T13:26:10;19.37;;;13.67;;
14849;SDS011;7517;48.400;11.770;2023-02-14T13:28:48;19.63;;;13.27;;
14849;SDS011;7517;48.400;11.770;2023-02-14T13:31:20;19.57;;;13.63;;
14849;SDS011;7517;48.400;11.770;2023-02-14T13:33:49;17.77;;;12.63;;
14849;SDS011;7517;48.400;11.770;2023-02-14T13:36:21;16.67;;;12.40;;
14849;SDS011;7517;48.400;11.770;2023-02-14T13:38:50;15.90;;;11.80;;
14849;SDS011;7517;48.400;11.770;2023-02-14T13:41:23;16.13;;;11.87;;
14849;SDS011;7517;48.400;11.770;2023-02-14T13:43:55;17.40;;;11.37;;
14849;SDS011;7517;48.400;11.770;2023-02-14T13:46:44;16.30;;;11.03;;
14849;SDS011;7517;48.400;11.770;2023-02-14T13:49:27;14.10;;;10.77;;
14849;SDS011;7517;48.400;11.770;2023-02-14T13:51:59;16.03;;;11.10;;
14849;SDS011;7517;48.400;11.770;2023-02-14T13:54:37;18.23;;;11.67;;
14849;SDS011;7517;48.400;11.770;2023-02-14T13:57:22;15.43;;;10.83;;
14849;SDS011;7517;48.400;11.770;2023-02-14T14:06:22;12.97;;;8.90;;
14849;SDS011;7517;48.400;11.770;2023-02-14T14:08:50;13.83;;;10.43;;
14849;SDS011;7517;48.400;11.770;2023-02-14T14:17:19;11.57;;;8.63;;
14849;SDS011;7517;48.400;11.770;2023-02-14T14:19:50;12.90;;;9.37;;
14849;SDS011;7517;48.400;11.770;2023-02-14T14:22:17;11.07;;;9.37;;
14849;SDS011;7517;48.400;11.770;2023-02-14T14:24:53;11.93;;;8.90;;
14849;SDS011;7517;48.400;11.770;2023-02-14T14:27:25;14.00;;;10.07;;
14849;SDS011;7517;48.400;11.770;2023-02-14T14:29:59;16.27;;;10.47;;
14849;SDS011;7517;48.400;11.770;2023-02-14T14:32:30;15.60;;;9.67;;
14849;SDS011;7517;48.400;11.770;2023-02-14T14:35:00;11.73;;;9.27;;
14849;SDS011;7517;48.400;11.770;2023-02-14T14:37:32;16.70;;;9.87;;
14849;SDS011;7517;48.400;11.770;2023-02-14T14:40:03;13.10;;;9.27;;
14849;SDS011;7517;48.400;11.770;2023-02-14T14:42:34;13.57;;;9.77;;
14849;SDS011;7517;48.400;11.770;2023-02-14T14:45:06;12.13;;;8.17;;
14849;SDS011;7517;48.400;11.770;2023-02-14T14:47:49;12.80;;;9.50;;
14849;SDS011;7517;48.400;11.770;2023-02-14T14:50:21;10.20;;;7.70;;
14849;SDS011;7517;48.400;11.770;2023-02-14T14:52:51;11.30;;;8.17;;
14849;SDS011;7517;48.400;11.770;2023-02-14T14:55:32;9.77;;;7.60;;
14849;SDS011;7517;48.400;11.770;2023-02-14T14:58:04;11.53;;;7.97;;
14849;SDS011;7517;48.400;11.770;2023-02-14T15:00:52;11.13;;;7.40;;
14849;SDS011;7517;48.400;11.770;2023-02-14T15:03:22;10.20;;;7.33;;
14849;SDS011;7517;48.400;11.770;2023-02-14T15:06:02;10.20;;;8.03;;
14849;SDS011;7517;48.400;11.770;2023-02-14T15:08:41;8.90;;;7.23;;
14849;SDS011;7517;48.400;11.770;2023-02-14T15:11:10;11.83;;;7.60;;
14849;SDS011;7517;48.400;11.770;2023-02-14T15:14:02;10.60;;;8.17;;
14849;SDS011;7517;48.400;11.770;2023-02-14T15:16:31;9.83;;;7.93;;
14849;SDS011;7517;48.400;11.770;2023-02-14T15:19:09;10.27;;;7.87;;
14849;SDS011;7517;48.400;11.770;2023-02-14T15:21:44;9.73;;;7.63;;
14849;SDS011;7517;48.400;11.770;2023-02-14T15:24:12;10.50;;;7.93;;
14849;SDS011;7517;48.400;11.770;2023-02-14T15:26:44;10.90;;;7.03;;
14849;SDS011;7517;48.400;11.770;2023-02-14T15:29:19;8.87;;;6.87;;
14849;SDS011;7517;48.400;11.770;2023-02-14T15:31:52;9.77;;;7.43;;
14849;SDS011;7517;48.400;11.770;2023-02-14T15:34:25;9.33;;;7.70;;
14849;SDS011;7517;48.400;11.770;2023-02-14T15:36:56;8.67;;;7.20;;
14849;SDS011;7517;48.400;11.770;2023-02-14T15:39:29;7.73;;;6.87;;
14849;SDS011;7517;48.400;11.770;2023-02-14T15:42:02;9.57;;;7.10;;
14849;SDS011;7517;48.400;11.770;2023-02-14T15:44:31;9.00;;;7.17;;
14849;SDS011;7517;48.400;11.770;2023-02-14T15:46:59;10.17;;;7.30;;
14849;SDS011;7517;48.400;11.770;2023-02-14T15:49:33;9.87;;;7.37;;
14849;SDS011;7517;48.400;11.770;2023-02-14T15:52:05;8.83;;;6.97;;
14849;SDS011;7517;48.400;11.770;2023-02-14T15:54:34;13.27;;;7.40;;
14849;SDS011;7517;48.400;11.770;2023-02-14T15:57:05;7.73;;;6.57;;
14849;SDS011;7517;48.400;11.770;2023-02-14T15:59:46;7.90;;;6.53;;
14849;SDS011;7517;48.400;11.770;2023-02-14T16:02:23;8.43;;;7.00;;
14849;SDS011;7517;48.400;11.770;2023-02-14T16:05:05;6.93;;;6.23;;
14849;SDS011;7517;48.400;11.770;2023-02-14T16:07:53;7.57;;;6.13;;
14849;SDS011;7517;48.400;11.770;2023-02-14T16:10:23;8.73;;;6.97;;